Time;durP1;ratioP1;P1;durP2;ratioP2;P2;SDS_P1;SDS_P2;PMS_P1;PMS_P2;Temp;Humidity;BMP_temperature;BMP_pressure;BME280_temperature;BME280_humidity;BME280_pressure;Samples;Min_cycle;Max_cycle;Signal;HPM_P1;HPM_P2
2022/09/11 00:01:33;;;;;;;8.88;7.80;;;20.20;99.90;;;;;;5043455;28;20048;-67
2022/09/11 00:04:00;;;;;;;12.18;7.07;;;20.20;99.90;;;;;;5033210;28;20473;-66
2022/09/11 00:06:26;;;;;;;8.05;7.25;;;20.20;99.90;;;;;;5046352;28;20024;-66
2022/09/11 00:08:53;;;;;;;6.78;6.13;;;20.20;99.90;;;;;;5033503;28;20033;-68
2022/09/11 00:11:20;;;;;;;9.05;6.75;;;20.20;99.90;;;;;;5033699;28;20028;-67
2022/09/11 00:13:48;;;;;;;6.65;6.05;;;20.20;99.90;;;;;;5033119;28;20872;-66
2022/09/11 00:16:34;;;;;;;8.63;7.72;;;20.20;99.90;;;;;;5033342;28;20026;-68
2022/09/11 00:19:10;;;;;;;7.32;6.43;;;20.20;99.90;;;;;;5032999;28;20021;-67
2022/09/11 00:21:36;;;;;;;12.00;7.60;;;20.20;99.90;;;;;;5033264;28;20108;-69
2022/09/11 00:24:02;;;;;;;11.05;7.55;;;20.20;99.90;;;;;;5032024;28;20451;-66
2022/09/11 00:26:28;;;;;;;9.50;7.35;;;20.20;99.90;;;;;;5033135;28;20063;-67
2022/09/11 00:28:54;;;;;;;10.45;8.23;;;20.20;99.90;;;;;;5033269;28;20022;-69
2022/09/11 00:31:26;;;;;;;9.02;8.15;;;20.10;99.90;;;;;;5033469;28;20013;-66
2022/09/11 00:33:52;;;;;;;7.82;7.10;;;20.10;99.90;;;;;;5033335;28;20079;-67
2022/09/11 00:36:24;;;;;;;8.02;7.13;;;20.10;99.90;;;;;;5033191;28;20022;-67
2022/09/11 00:38:50;;;;;;;8.70;7.82;;;20.20;99.90;;;;;;5033467;28;20018;-66
2022/09/11 00:41:20;;;;;;;8.43;7.65;;;20.10;99.90;;;;;;5032594;28;20030;-68
2022/09/11 00:44:06;;;;;;;8.05;7.35;;;20.10;99.90;;;;;;5033389;28;20041;-67
2022/09/11 00:46:47;;;;;;;8.25;6.95;;;20.10;99.90;;;;;;5033226;28;20029;-67
2022/09/11 00:49:31;;;;;;;9.10;7.97;;;20.10;99.90;;;;;;5032893;28;20029;-68
2022/09/11 00:52:07;;;;;;;8.63;7.82;;;20.10;99.90;;;;;;5031876;28;20025;-67
2022/09/11 00:54:36;;;;;;;14.68;8.38;;;20.00;99.90;;;;;;5034216;28;20103;-70
2022/09/11 00:57:06;;;;;;;8.70;7.80;;;20.10;99.90;;;;;;5031666;28;20287;-68
2022/09/11 00:59:33;;;;;;;11.85;8.95;;;20.00;99.90;;;;;;5031391;28;20026;-67
2022/09/11 01:01:59;;;;;;;11.82;8.38;;;20.00;99.90;;;;;;5032076;28;20075;-67
2022/09/11 01:04:24;;;;;;;8.95;8.02;;;20.00;99.90;;;;;;5033110;28;20026;-66
2022/09/11 01:06:55;;;;;;;8.52;7.75;;;20.00;99.90;;;;;;5033000;28;20017;-68
2022/09/11 01:09:21;;;;;;;9.30;8.40;;;20.00;99.90;;;;;;5032263;28;20433;-67
2022/09/11 01:12:02;;;;;;;9.73;8.93;;;20.00;99.90;;;;;;5032748;28;20033;-66
2022/09/11 01:14:46;;;;;;;9.48;8.77;;;20.00;99.90;;;;;;5032724;28;20029;-67
2022/09/11 01:17:50;;;;;;;9.85;8.95;;;20.00;99.90;;;;;;5032866;28;20109;-67
2022/09/11 01:20:42;;;;;;;9.98;9.07;;;20.00;99.90;;;;;;5032534;28;20025;-68
2022/09/11 01:23:27;;;;;;;14.07;9.15;;;20.00;99.90;;;;;;5032669;28;20038;-69
2022/09/11 01:26:18;;;;;;;11.18;8.98;;;19.90;99.90;;;;;;5032703;28;20026;-67
2022/09/11 01:28:56;;;;;;;14.13;9.82;;;19.90;99.90;;;;;;5032630;28;20040;-67
2022/09/11 01:31:26;;;;;;;9.95;8.95;;;19.90;99.90;;;;;;5034448;28;20091;-76
2022/09/11 01:34:08;;;;;;;10.77;9.70;;;19.90;99.90;;;;;;5036088;28;20017;-78
2022/09/11 01:36:37;;;;;;;;;;;20.00;99.90;;;;;;5036965;28;20030;-77
2022/09/11 01:39:04;;;;;;;10.25;9.35;;;20.00;99.90;;;;;;5036253;28;20282;-75
2022/09/11 01:41:39;;;;;;;9.93;9.02;;;19.90;99.90;;;;;;5036320;28;20071;-76
2022/09/11 01:44:07;;;;;;;9.30;8.52;;;19.90;99.90;;;;;;5036428;28;20037;-77
2022/09/11 01:46:39;;;;;;;9.18;8.38;;;19.90;99.90;;;;;;5036229;28;20052;-72
2022/09/11 01:49:07;;;;;;;;;;;19.90;99.90;;;;;;5035996;28;20154;-77
2022/09/11 01:51:35;;;;;;;11.32;10.23;;;19.90;99.90;;;;;;5036052;28;19909;-78
2022/09/11 01:54:03;;;;;;;10.13;9.15;;;19.80;99.90;;;;;;5036447;28;20022;-77
2022/09/11 01:56:39;;;;;;;11.27;10.27;;;19.90;99.90;;;;;;5036105;28;20017;-74
2022/09/11 01:59:10;;;;;;;10.13;9.02;;;19.80;99.90;;;;;;5036332;28;20466;-77
2022/09/11 02:01:41;;;;;;;11.25;10.25;;;19.80;99.90;;;;;;5034609;28;20071;-75
2022/09/11 02:04:14;;;;;;;9.95;9.05;;;19.80;99.90;;;;;;5036098;28;20061;-74
2022/09/11 02:06:46;;;;;;;11.30;10.13;;;19.80;99.90;;;;;;5035680;28;20467;-67
2022/09/11 02:09:15;;;;;;;11.55;10.60;;;19.80;99.90;;;;;;5036122;28;20064;-72
2022/09/11 02:11:44;;;;;;;11.48;10.35;;;19.80;99.90;;;;;;5035965;28;20021;-77
2022/09/11 02:14:29;;;;;;;11.10;9.90;;;19.80;99.90;;;;;;5035914;28;20030;-71
2022/09/11 02:17:25;;;;;;;10.48;9.48;;;19.80;99.90;;;;;;5035021;28;20032;-71
2022/09/11 02:19:53;;;;;;;13.55;9.85;;;19.80;99.90;;;;;;5035686;28;20067;-69
2022/09/11 02:22:19;;;;;;;11.55;10.35;;;19.80;99.90;;;;;;5035337;28;20029;-77
2022/09/11 02:24:45;;;;;;;11.40;10.40;;;19.80;99.90;;;;;;5035738;28;20550;-75
2022/09/11 02:27:19;;;;;;;10.80;9.80;;;19.80;99.90;;;;;;5035471;28;20022;-77
2022/09/11 02:29:45;;;;;;;11.48;10.48;;;19.80;99.90;;;;;;5035795;28;20021;-77
2022/09/11 02:32:11;;;;;;;11.38;10.18;;;19.70;99.90;;;;;;5035569;28;20028;-78
2022/09/11 02:34:39;;;;;;;11.32;10.13;;;19.70;99.90;;;;;;5036083;28;20481;-77
2022/09/11 02:37:33;;;;;;;12.43;11.48;;;19.70;99.90;;;;;;5035176;28;20038;-75
2022/09/11 02:40:15;;;;;;;11.40;10.30;;;19.70;99.90;;;;;;5035532;28;20033;-78
2022/09/11 02:42:41;;;;;;;;;;;19.70;99.90;;;;;;5034726;28;20487;-72
2022/09/11 02:45:35;;;;;;;11.68;10.48;;;19.80;99.90;;;;;;5035389;28;19912;-67
2022/09/11 02:48:20;;;;;;;10.55;9.65;;;19.80;99.90;;;;;;5035163;28;20079;-67
2022/09/11 02:51:00;;;;;;;12.45;11.30;;;19.70;99.90;;;;;;5035025;28;20022;-68
2022/09/11 02:53:41;;;;;;;10.85;9.95;;;19.70;99.90;;;;;;5035167;28;20018;-66
2022/09/11 02:56:15;;;;;;;11.70;10.60;;;19.70;99.90;;;;;;5034422;28;20026;-69
2022/09/11 02:58:49;;;;;;;14.65;11.90;;;19.70;99.90;;;;;;5035194;28;20021;-66
2022/09/11 03:01:15;;;;;;;14.93;11.45;;;19.70;99.90;;;;;;5033619;28;20048;-67
2022/09/11 03:03:44;;;;;;;12.48;11.20;;;19.70;99.90;;;;;;5034953;28;20034;-66
2022/09/11 03:06:17;;;;;;;10.73;9.85;;;19.70;99.90;;;;;;5033985;28;20021;-67
2022/09/11 03:08:43;;;;;;;12.80;11.45;;;19.60;99.90;;;;;;5034853;28;20060;-69
2022/09/11 03:11:09;;;;;;;11.80;10.63;;;19.70;99.90;;;;;;5035045;28;20026;-68
2022/09/11 03:13:35;;;;;;;12.77;10.98;;;19.60;99.90;;;;;;5034681;28;20493;-67
2022/09/11 03:16:03;;;;;;;11.80;10.73;;;19.60;99.90;;;;;;5034574;28;20083;-66
2022/09/11 03:18:29;;;;;;;12.68;11.48;;;19.60;99.90;;;;;;5034081;28;20094;-67
2022/09/11 03:20:55;;;;;;;12.45;11.23;;;19.60;99.90;;;;;;5034521;28;20466;-66
2022/09/11 03:23:21;;;;;;;12.43;11.30;;;19.60;99.90;;;;;;5034474;28;20029;-67
2022/09/11 03:25:47;;;;;;;11.63;10.65;;;19.60;99.90;;;;;;5034658;28;20553;-68
2022/09/11 03:28:12;;;;;;;12.65;11.32;;;19.60;99.90;;;;;;5034418;28;20079;-67
2022/09/11 03:30:40;;;;;;;12.23;10.98;;;19.60;99.90;;;;;;5034609;28;20374;-68
2022/09/11 03:33:06;;;;;;;14.80;12.68;;;19.60;99.90;;;;;;5033480;28;20037;-68
2022/09/11 03:35:32;;;;;;;13.02;11.75;;;19.60;99.90;;;;;;5033572;28;20021;-71
2022/09/11 03:37:58;;;;;;;11.45;10.45;;;19.60;99.90;;;;;;5033737;28;20398;-73
2022/09/11 03:40:23;;;;;;;11.90;10.90;;;19.50;99.90;;;;;;5034154;28;20478;-75
2022/09/11 03:42:49;;;;;;;14.23;12.98;;;19.50;99.90;;;;;;5032770;28;20042;-69
2022/09/11 03:45:14;;;;;;;13.00;11.70;;;19.50;99.90;;;;;;5034349;28;20029;-69
2022/09/11 03:47:41;;;;;;;13.50;12.20;;;19.50;99.90;;;;;;5033794;28;20028;-66
2022/09/11 03:50:08;;;;;;;11.20;10.10;;;19.50;99.90;;;;;;5034036;28;20025;-74
2022/09/11 03:52:34;;;;;;;12.85;11.80;;;19.50;99.90;;;;;;5033848;28;20029;-71
2022/09/11 03:55:01;;;;;;;12.40;11.27;;;19.50;99.90;;;;;;5034176;28;20029;-68
2022/09/11 03:57:26;;;;;;;12.10;11.00;;;19.50;99.90;;;;;;5033691;28;20026;-68
2022/09/11 03:59:54;;;;;;;14.68;13.05;;;19.50;99.90;;;;;;5034029;28;20087;-67
2022/09/11 04:02:22;;;;;;;13.30;12.10;;;19.50;99.90;;;;;;5033560;28;20032;-67
2022/09/11 04:04:47;;;;;;;14.68;13.27;;;19.50;99.90;;;;;;5033817;28;20037;-67
2022/09/11 04:07:13;;;;;;;12.48;11.27;;;19.50;99.90;;;;;;5033714;28;20426;-67
2022/09/11 04:09:38;;;;;;;13.98;12.55;;;19.50;99.90;;;;;;5033345;28;20022;-66
2022/09/11 04:12:04;;;;;;;13.45;12.13;;;19.50;99.90;;;;;;5033881;28;20033;-67
2022/09/11 04:14:29;;;;;;;14.95;13.52;;;19.50;99.90;;;;;;5033734;28;20117;-67
2022/09/11 04:16:55;;;;;;;14.40;13.00;;;19.50;99.90;;;;;;5033319;28;20029;-66
2022/09/11 04:19:22;;;;;;;13.85;12.52;;;19.50;99.90;;;;;;5033374;28;20033;-66
2022/09/11 04:21:47;;;;;;;14.55;12.85;;;19.40;99.90;;;;;;5033951;28;20026;-66
2022/09/11 04:24:14;;;;;;;12.80;11.65;;;19.40;99.90;;;;;;5033520;28;20037;-69
2022/09/11 04:26:39;;;;;;;12.63;11.27;;;19.40;99.90;;;;;;5033469;28;20036;-66
2022/09/11 04:29:05;;;;;;;13.50;12.30;;;19.40;99.90;;;;;;5033420;28;20033;-67
2022/09/11 04:31:33;;;;;;;14.13;12.70;;;19.40;99.90;;;;;;5033125;28;20032;-70
2022/09/11 04:33:59;;;;;;;14.55;13.15;;;19.40;99.90;;;;;;5033722;28;20049;-66
2022/09/11 04:36:25;;;;;;;11.38;10.32;;;19.40;99.90;;;;;;5033327;28;20579;-66
2022/09/11 04:38:55;;;;;;;12.80;11.63;;;19.40;99.90;;;;;;5033208;28;20379;-66
2022/09/11 04:41:20;;;;;;;13.77;12.48;;;19.40;99.90;;;;;;5033264;28;20037;-67
2022/09/11 04:43:46;;;;;;;11.40;10.40;;;19.40;99.90;;;;;;5033029;28;20041;-69
2022/09/11 04:46:14;;;;;;;12.82;11.63;;;19.40;99.90;;;;;;5033150;28;20052;-66
2022/09/11 04:48:47;;;;;;;13.98;12.52;;;19.40;99.90;;;;;;5033497;28;20111;-66
2022/09/11 04:51:24;;;;;;;14.70;13.20;;;19.40;99.90;;;;;;5033134;28;20021;-66
2022/09/11 04:53:51;;;;;;;13.82;12.43;;;19.30;99.90;;;;;;5033107;28;20037;-67
2022/09/11 04:56:19;;;;;;;14.35;13.05;;;19.30;99.90;;;;;;5032487;28;20091;-67
2022/09/11 04:58:45;;;;;;;14.85;13.60;;;19.30;99.90;;;;;;5033038;28;20025;-67
2022/09/11 05:01:15;;;;;;;14.27;13.02;;;19.30;99.90;;;;;;5032594;28;20036;-66
2022/09/11 05:03:42;;;;;;;15.48;13.88;;;19.30;99.90;;;;;;5032702;28;20030;-67
2022/09/11 05:06:09;;;;;;;13.65;12.35;;;19.30;99.90;;;;;;5030954;28;20013;-68
2022/09/11 05:08:38;;;;;;;14.73;13.25;;;19.30;99.90;;;;;;5031378;28;20112;-68
2022/09/11 05:11:04;;;;;;;17.90;13.65;;;19.30;99.90;;;;;;5032445;28;20079;-66
2022/09/11 05:13:33;;;;;;;15.15;13.65;;;19.30;99.90;;;;;;5032595;28;20417;-66
2022/09/11 05:16:03;;;;;;;15.50;13.90;;;19.30;99.90;;;;;;5032543;28;20060;-68
2022/09/11 05:18:29;;;;;;;15.52;14.10;;;19.30;99.90;;;;;;5032922;28;20026;-68
2022/09/11 05:20:59;;;;;;;14.93;13.30;;;19.30;99.90;;;;;;5032849;28;20374;-67
2022/09/11 05:23:24;;;;;;;15.38;13.98;;;19.30;99.90;;;;;;5032686;28;20029;-67
2022/09/11 05:25:51;;;;;;;15.18;13.68;;;19.20;99.90;;;;;;5031105;28;20108;-68
2022/09/11 05:28:16;;;;;;;16.75;14.38;;;19.30;99.90;;;;;;5032771;28;20030;-66
2022/09/11 05:30:42;;;;;;;16.55;14.55;;;19.30;99.90;;;;;;5030960;28;20380;-67
2022/09/11 05:33:08;;;;;;;17.27;14.30;;;19.30;99.90;;;;;;5032899;28;20018;-66
2022/09/11 05:35:34;;;;;;;16.55;14.73;;;19.30;99.90;;;;;;5032614;28;20049;-69
2022/09/11 05:38:00;;;;;;;21.42;15.85;;;19.20;99.90;;;;;;5032761;28;20061;-69
2022/09/11 05:40:25;;;;;;;25.27;16.92;;;19.20;99.90;;;;;;5032240;28;20115;-67
2022/09/11 05:42:51;;;;;;;40.53;18.05;;;19.20;99.90;;;;;;5032358;28;20033;-67
2022/09/11 05:45:17;;;;;;;71.45;18.23;;;19.20;99.90;;;;;;5032237;28;20033;-67
2022/09/11 05:47:43;;;;;;;44.40;16.35;;;19.20;99.90;;;;;;5032682;28;20057;-68
2022/09/11 05:50:09;;;;;;;73.82;18.17;;;19.20;99.90;;;;;;5032599;28;20060;-66
2022/09/11 05:52:35;;;;;;;52.30;16.90;;;19.20;99.90;;;;;;5032505;28;20029;-66
2022/09/11 05:55:00;;;;;;;52.90;17.42;;;19.20;99.90;;;;;;5031310;28;20021;-66
2022/09/11 05:57:26;;;;;;;49.45;16.92;;;19.20;99.90;;;;;;5032280;28;20025;-66
2022/09/11 05:59:51;;;;;;;47.42;15.90;;;19.20;99.90;;;;;;5032186;28;20026;-66
2022/09/11 06:02:17;;;;;;;35.97;14.45;;;19.20;99.90;;;;;;5032465;28;20057;-67
2022/09/11 06:04:43;;;;;;;38.30;13.73;;;19.20;99.90;;;;;;5032521;28;20044;-67
2022/09/11 06:07:08;;;;;;;40.95;14.52;;;19.20;99.90;;;;;;5032396;28;20547;-67
2022/09/11 06:09:34;;;;;;;25.63;14.75;;;19.20;99.90;;;;;;5032352;28;20100;-67
2022/09/11 06:12:00;;;;;;;28.08;12.50;;;19.20;99.90;;;;;;5035151;28;20367;-66
2022/09/11 06:14:26;;;;;;;19.98;11.82;;;19.30;99.90;;;;;;5047979;28;20112;-66
2022/09/11 06:16:55;;;;;;;5.63;4.20;;;19.30;99.90;;;;;;5038617;28;20481;-67
2022/09/11 06:19:21;;;;;;;6.53;3.20;;;19.40;99.90;;;;;;5038378;28;20056;-73
2022/09/11 06:21:47;;;;;;;5.45;3.40;;;19.50;99.90;;;;;;5035167;28;20076;-67
2022/09/11 06:24:13;;;;;;;6.70;4.65;;;19.50;99.90;;;;;;5048082;28;20087;-69
2022/09/11 06:26:39;;;;;;;6.40;5.80;;;19.60;99.90;;;;;;5035686;28;20480;-65
2022/09/11 06:29:04;;;;;;;6.03;5.45;;;19.70;99.90;;;;;;5037100;28;20030;-66
2022/09/11 06:31:30;;;;;;;6.88;6.28;;;19.70;99.90;;;;;;5036175;28;20032;-65
2022/09/11 06:33:55;;;;;;;7.38;6.78;;;19.70;99.90;;;;;;5047933;28;20400;-66
2022/09/11 06:36:25;;;;;;;9.10;7.88;;;19.80;99.90;;;;;;5038147;28;20030;-66
2022/09/11 06:38:53;;;;;;;9.07;8.27;;;19.80;99.90;;;;;;5049443;28;20098;-66
2022/09/11 06:41:19;;;;;;;8.13;7.43;;;19.80;99.90;;;;;;5034188;28;20467;-67
2022/09/11 06:43:45;;;;;;;8.75;7.95;;;19.80;99.90;;;;;;5034292;28;20076;-67
2022/09/11 06:46:13;;;;;;;6.65;6.05;;;19.80;99.90;;;;;;5041343;28;20021;-67
2022/09/11 06:48:40;;;;;;;8.13;7.40;;;19.80;99.90;;;;;;5039066;28;20112;-65
2022/09/11 06:51:10;;;;;;;8.40;7.70;;;19.80;99.90;;;;;;5034627;28;20441;-67
2022/09/11 06:53:36;;;;;;;8.80;6.75;;;19.80;99.90;;;;;;5043741;28;20027;-66
2022/09/11 06:56:03;;;;;;;7.60;6.90;;;19.80;99.80;;;;;;5045062;28;20017;-67
2022/09/11 06:58:29;;;;;;;21.25;10.60;;;19.90;99.80;;;;;;5052538;28;20462;-66
2022/09/11 07:01:00;;;;;;;8.98;8.07;;;19.80;99.90;;;;;;5038396;28;20028;-66
2022/09/11 07:03:26;;;;;;;16.02;9.63;;;19.80;99.90;;;;;;5044761;28;20043;-67
2022/09/11 07:05:51;;;;;;;9.30;8.48;;;19.80;99.90;;;;;;5041652;28;20033;-68
2022/09/11 07:08:17;;;;;;;8.88;7.75;;;19.80;99.90;;;;;;5033425;28;20021;-66
2022/09/11 07:10:42;;;;;;;8.95;8.25;;;19.90;99.80;;;;;;5033847;28;20087;-74
2022/09/11 07:13:08;;;;;;;8.98;7.53;;;19.90;99.90;;;;;;5039531;28;20078;-66
2022/09/11 07:15:33;;;;;;;8.23;7.40;;;19.90;99.80;;;;;;5035160;28;20037;-74
2022/09/11 07:18:00;;;;;;;10.43;7.85;;;19.90;99.80;;;;;;5045131;28;20028;-68
2022/09/11 07:20:26;;;;;;;8.75;7.95;;;19.90;99.90;;;;;;5054401;28;20021;-66
2022/09/11 07:22:52;;;;;;;8.65;7.90;;;19.90;99.90;;;;;;5045851;28;20547;-66
2022/09/11 07:25:17;;;;;;;9.43;8.63;;;19.90;99.90;;;;;;5051644;28;20044;-66
2022/09/11 07:27:43;;;;;;;7.82;7.13;;;19.90;99.90;;;;;;5040900;28;20029;-72
2022/09/11 07:30:09;;;;;;;8.00;7.40;;;19.90;99.90;;;;;;5041900;28;20467;-71
2022/09/11 07:32:36;;;;;;;8.43;7.70;;;19.90;99.90;;;;;;5037570;28;20099;-65
2022/09/11 07:35:02;;;;;;;8.15;7.55;;;19.90;99.90;;;;;;5046888;28;20176;-67
2022/09/11 07:37:28;;;;;;;7.75;7.07;;;19.90;99.90;;;;;;5042062;28;20481;-66
2022/09/11 07:39:53;;;;;;;14.82;13.63;;;19.90;99.90;;;;;;5043997;28;20122;-68
2022/09/11 07:42:19;;;;;;;15.30;14.00;;;19.90;99.90;;;;;;5056680;28;20032;-68
2022/09/11 07:44:44;;;;;;;15.35;14.05;;;19.90;99.90;;;;;;5042375;28;20060;-67
2022/09/11 07:47:10;;;;;;;8.32;7.57;;;20.00;99.90;;;;;;5054084;28;20024;-67
2022/09/11 07:49:35;;;;;;;13.73;12.52;;;20.00;99.90;;;;;;5037203;28;20037;-73
2022/09/11 07:52:02;;;;;;;14.23;12.88;;;19.90;99.90;;;;;;5042403;28;20028;-75
2022/09/11 07:54:28;;;;;;;14.30;13.10;;;19.90;99.90;;;;;;5050267;28;20033;-73
2022/09/11 07:56:54;;;;;;;12.90;11.60;;;19.90;99.90;;;;;;5057896;28;20044;-66
2022/09/11 07:59:21;;;;;;;15.05;13.82;;;19.90;99.90;;;;;;5065564;28;20348;-67
2022/09/11 08:01:49;;;;;;;12.77;11.60;;;19.90;99.90;;;;;;5061466;28;20029;-68
2022/09/11 08:04:15;;;;;;;13.85;12.65;;;19.90;99.90;;;;;;5052418;28;20036;-70
2022/09/11 08:06:40;;;;;;;14.10;13.00;;;19.90;99.90;;;;;;5063573;28;20120;-67
2022/09/11 08:09:09;;;;;;;16.50;15.13;;;19.90;99.90;;;;;;5061093;28;20481;-73
2022/09/11 08:11:57;;;;;;;14.07;12.93;;;19.90;99.90;;;;;;5055550;28;20025;-72
2022/09/11 08:14:24;;;;;;;9.13;8.32;;;19.90;99.90;;;;;;5036906;28;20037;-67
2022/09/11 08:16:50;;;;;;;8.43;7.63;;;20.00;99.90;;;;;;5043088;28;20022;-68
2022/09/11 08:19:17;;;;;;;11.05;9.95;;;20.00;99.90;;;;;;5039080;28;20079;-67
2022/09/11 08:21:43;;;;;;;12.98;11.88;;;20.00;99.90;;;;;;5043543;28;20029;-67
2022/09/11 08:24:11;;;;;;;14.52;13.32;;;20.00;99.90;;;;;;5046064;28;20037;-75
2022/09/11 08:26:37;;;;;;;12.52;11.43;;;20.00;99.90;;;;;;5043955;28;20092;-76
2022/09/11 08:29:04;;;;;;;12.57;11.48;;;20.10;99.90;;;;;;5045606;28;20117;-70
2022/09/11 08:31:29;;;;;;;14.95;13.55;;;20.10;99.90;;;;;;5042391;28;20017;-67
2022/09/11 08:33:55;;;;;;;17.55;16.02;;;20.10;99.90;;;;;;5050312;28;20078;-66
2022/09/11 08:36:22;;;;;;;18.50;16.80;;;20.10;99.90;;;;;;5052589;28;20104;-67
2022/09/11 08:38:48;;;;;;;15.38;13.85;;;20.10;99.90;;;;;;5049947;28;20493;-71
2022/09/11 08:41:22;;;;;;;15.45;14.15;;;20.10;99.90;;;;;;5047312;28;20041;-66
2022/09/11 08:43:53;;;;;;;13.98;12.68;;;20.20;99.90;;;;;;5039997;28;20417;-66
2022/09/11 08:46:22;;;;;;;14.52;13.13;;;20.20;99.90;;;;;;5039343;28;20020;-68
2022/09/11 08:49:27;;;;;;;13.98;12.57;;;20.20;99.90;;;;;;5043796;28;20028;-66
2022/09/11 08:51:58;;;;;;;14.73;13.25;;;20.20;99.90;;;;;;5053078;28;20032;-67
2022/09/11 08:54:31;;;;;;;13.40;12.00;;;20.20;99.90;;;;;;5047394;28;20020;-64
2022/09/11 08:57:02;;;;;;;;;;;20.20;99.90;;;;;;5064599;28;20029;-65
2022/09/11 09:00:03;;;;;;;15.23;13.85;;;20.20;99.90;;;;;;5036978;28;19909;-65
2022/09/11 09:02:37;;;;;;;10.35;9.45;;;20.10;99.90;;;;;;5026902;28;20041;-67
2022/09/11 09:05:18;;;;;;;11.60;10.50;;;20.10;99.90;;;;;;5054025;28;20047;-65
2022/09/11 09:08:00;;;;;;;11.65;10.05;;;20.10;99.90;;;;;;5067096;28;20039;-65
2022/09/11 09:10:38;;;;;;;11.27;10.20;;;20.10;99.90;;;;;;5043523;28;20033;-65
2022/09/11 09:13:29;;;;;;;10.55;9.52;;;20.10;99.90;;;;;;5044874;28;20030;-65
2022/09/11 09:16:12;;;;;;;12.75;10.00;;;20.10;99.90;;;;;;5034676;28;20082;-71
2022/09/11 09:19:08;;;;;;;11.70;9.60;;;20.20;99.90;;;;;;5040118;28;20025;-66
2022/09/11 09:21:45;;;;;;;12.55;11.25;;;20.20;99.90;;;;;;5035911;28;20076;-68
2022/09/11 09:24:20;;;;;;;11.90;10.60;;;20.20;99.90;;;;;;5050401;28;20119;-68
2022/09/11 09:26:51;;;;;;;15.30;13.75;;;20.20;99.90;;;;;;5039374;28;20029;-68
2022/09/11 09:29:21;;;;;;;13.95;12.73;;;20.20;99.90;;;;;;5041723;28;20029;-68
2022/09/11 09:31:53;;;;;;;13.40;12.18;;;20.20;99.90;;;;;;5032767;28;20575;-71
2022/09/11 09:34:20;;;;;;;;;;;20.30;99.90;;;;;;5038589;28;20021;-68
2022/09/11 09:37:06;;;;;;;11.40;10.30;;;20.30;99.90;;;;;;5039443;28;19974;-66
2022/09/11 09:39:35;;;;;;;11.32;10.00;;;20.30;99.90;;;;;;5043095;28;20032;-67
2022/09/11 09:42:34;;;;;;;10.27;9.38;;;20.30;99.90;;;;;;5041185;28;20340;-72
2022/09/11 09:45:17;;;;;;;11.13;9.98;;;20.40;99.90;;;;;;5036222;28;20033;-69
2022/09/11 09:47:44;;;;;;;10.07;9.13;;;20.40;99.90;;;;;;5041869;28;20478;-75
2022/09/11 09:50:32;;;;;;;8.60;7.80;;;20.40;99.90;;;;;;5042957;28;20031;-75
2022/09/11 09:53:26;;;;;;;7.55;6.75;;;20.40;99.90;;;;;;5035704;28;20065;-71
2022/09/11 09:55:53;;;;;;;7.25;5.60;;;20.40;99.90;;;;;;5048082;28;20088;-70
2022/09/11 09:58:23;;;;;;;6.18;4.85;;;20.40;99.90;;;;;;5044683;28;20013;-66
2022/09/11 10:00:49;;;;;;;7.63;5.90;;;20.50;99.90;;;;;;5040768;28;20065;-72
2022/09/11 10:03:22;;;;;;;6.10;5.50;;;20.50;99.90;;;;;;5046396;28;20457;-70
2022/09/11 10:05:52;;;;;;;7.85;6.38;;;20.50;99.90;;;;;;5044917;28;20044;-72
2022/09/11 10:08:28;;;;;;;7.40;6.65;;;20.50;99.90;;;;;;5035789;28;20107;-70
2022/09/11 10:10:59;;;;;;;8.25;7.25;;;20.50;99.90;;;;;;5043404;28;20040;-73
2022/09/11 10:13:28;;;;;;;9.03;8.13;;;20.60;99.90;;;;;;5038221;28;20108;-72
2022/09/11 10:15:58;;;;;;;12.77;11.45;;;20.60;99.90;;;;;;5047698;28;20032;-70
2022/09/11 10:18:44;;;;;;;12.38;10.93;;;20.60;99.90;;;;;;5044834;28;20040;-68
2022/09/11 10:21:10;;;;;;;14.38;13.18;;;20.60;99.90;;;;;;5045946;28;20029;-69
2022/09/11 10:23:49;;;;;;;14.63;12.80;;;20.70;99.90;;;;;;5055410;28;20124;-73
2022/09/11 10:26:31;;;;;;;16.42;12.13;;;20.60;99.90;;;;;;5040222;28;20028;-70
2022/09/11 10:29:17;;;;;;;15.18;13.65;;;20.70;99.90;;;;;;5038858;28;20037;-66
2022/09/11 10:31:54;;;;;;;13.35;11.95;;;20.70;99.90;;;;;;5053735;28;20025;-71
2022/09/11 10:34:23;;;;;;;12.60;11.05;;;20.70;99.90;;;;;;5045724;28;20078;-66
2022/09/11 10:36:59;;;;;;;11.48;10.32;;;20.70;99.90;;;;;;5043003;28;20509;-67
2022/09/11 10:39:27;;;;;;;13.82;11.35;;;20.70;99.90;;;;;;5048618;28;20021;-65
2022/09/11 10:41:58;;;;;;;12.52;11.35;;;20.80;99.90;;;;;;5051461;28;20044;-67
2022/09/11 10:44:25;;;;;;;13.02;11.65;;;20.70;99.90;;;;;;5046994;28;20071;-67
2022/09/11 10:47:23;;;;;;;13.05;9.82;;;20.70;99.90;;;;;;5065398;28;20160;-69
2022/09/11 10:50:09;;;;;;;10.90;8.93;;;20.70;99.90;;;;;;5056606;28;20060;-66
2022/09/11 10:52:51;;;;;;;9.77;8.75;;;20.80;99.90;;;;;;5042144;28;20412;-64
2022/09/11 10:55:18;;;;;;;;;;;20.80;99.90;;;;;;5041048;28;20060;-67
2022/09/11 10:57:56;;;;;;;8.77;7.93;;;20.80;99.90;;;;;;5037694;28;19909;-69
2022/09/11 11:00:25;;;;;;;7.88;7.00;;;20.80;99.90;;;;;;5041381;28;20076;-64
2022/09/11 11:02:54;;;;;;;8.50;7.18;;;20.90;99.90;;;;;;5033073;28;20033;-66
2022/09/11 11:05:43;;;;;;;11.27;8.02;;;20.90;99.90;;;;;;5034449;28;20013;-69
2022/09/11 11:08:31;;;;;;;9.52;7.97;;;20.90;99.90;;;;;;5033395;28;20048;-68
2022/09/11 11:11:14;;;;;;;11.02;10.02;;;20.90;99.90;;;;;;5050925;28;20029;-69
2022/09/11 11:13:55;;;;;;;9.45;8.55;;;20.90;99.90;;;;;;5050718;28;20025;-70
2022/09/11 11:16:47;;;;;;;12.27;9.55;;;21.00;99.90;;;;;;5054325;28;20100;-69
2022/09/11 11:19:27;;;;;;;12.35;8.45;;;21.00;99.90;;;;;;5032725;28;20034;-68
2022/09/11 11:22:14;;;;;;;8.48;7.63;;;21.10;99.90;;;;;;5059705;28;20016;-70
2022/09/11 11:25:01;;;;;;;8.32;7.40;;;21.00;99.90;;;;;;5047296;28;20036;-72
2022/09/11 11:27:29;;;;;;;9.77;8.23;;;21.10;99.90;;;;;;5049376;28;20048;-71
2022/09/11 11:29:55;;;;;;;15.43;8.63;;;21.10;99.90;;;;;;5034653;28;20024;-66
2022/09/11 11:32:48;;;;;;;9.48;7.18;;;21.10;99.90;;;;;;5039915;28;20032;-73
2022/09/11 11:35:14;;;;;;;7.30;6.53;;;21.20;99.90;;;;;;5035491;28;20152;-73
2022/09/11 11:37:41;;;;;;;9.07;6.65;;;21.20;99.90;;;;;;5038668;28;20105;-69
2022/09/11 11:40:24;;;;;;;9.75;7.00;;;21.20;99.90;;;;;;5036916;28;20021;-71
2022/09/11 11:42:51;;;;;;;;;;;21.20;99.40;;;;;;5036407;28;20056;-70
2022/09/11 11:45:33;;;;;;;5.82;5.07;;;21.30;99.90;;;;;;5052689;28;20443;-69
2022/09/11 11:48:04;;;;;;;7.95;6.05;;;21.30;99.90;;;;;;5043059;28;20477;-72
2022/09/11 11:50:39;;;;;;;6.28;4.97;;;21.30;99.90;;;;;;5041983;28;20064;-70
2022/09/11 11:53:30;;;;;;;6.97;5.40;;;21.30;99.90;;;;;;5038047;28;20024;-69
2022/09/11 11:56:07;;;;;;;8.18;4.95;;;21.40;99.90;;;;;;5045820;28;20028;-73
2022/09/11 11:58:57;;;;;;;6.30;5.07;;;21.40;99.90;;;;;;5040376;28;20029;-68
2022/09/11 12:01:39;;;;;;;9.25;4.82;;;21.40;99.90;;;;;;5020440;28;21056;-70
2022/09/11 12:04:42;;;;;;;6.63;4.43;;;21.40;99.20;;;;;;5052096;28;20184;-70
2022/09/11 12:07:30;;;;;;;4.65;3.33;;;21.50;98.30;;;;;;5045819;28;20020;-67
2022/09/11 12:09:57;;;;;;;8.88;7.97;;;21.50;96.60;;;;;;5036011;28;20467;-74
2022/09/11 12:12:35;;;;;;;9.95;8.98;;;21.50;96.80;;;;;;5057397;28;20405;-69
2022/09/11 12:15:17;;;;;;;11.02;8.15;;;21.60;97.00;;;;;;5040762;28;20151;-75
2022/09/11 12:17:42;;;;;;;7.47;6.50;;;21.60;97.00;;;;;;5039396;28;20042;-75
2022/09/11 12:20:12;;;;;;;8.40;7.60;;;21.60;97.30;;;;;;5034621;28;20041;-74
2022/09/11 12:22:40;;;;;;;10.65;7.78;;;21.60;97.10;;;;;;5035785;28;20035;-73
2022/09/11 12:25:17;;;;;;;7.35;6.60;;;21.70;97.00;;;;;;5046738;28;20029;-73
2022/09/11 12:27:43;;;;;;;8.10;6.55;;;21.70;97.10;;;;;;5040069;28;20513;-73
2022/09/11 12:30:15;;;;;;;8.50;7.63;;;21.60;96.30;;;;;;5036596;28;20026;-72
2022/09/11 12:32:46;;;;;;;10.95;7.15;;;21.70;96.10;;;;;;5050979;28;20032;-72
2022/09/11 12:35:20;;;;;;;8.30;7.00;;;21.60;95.90;;;;;;5049994;28;20027;-68
2022/09/11 12:38:13;;;;;;;6.68;5.63;;;21.70;96.00;;;;;;5035753;28;20103;-66
2022/09/11 12:41:06;;;;;;;8.65;6.88;;;21.70;96.60;;;;;;5036285;28;20081;-66
2022/09/11 12:43:34;;;;;;;7.45;6.72;;;21.70;96.70;;;;;;5046098;28;20112;-68
2022/09/11 12:46:04;;;;;;;8.00;7.30;;;21.80;96.50;;;;;;5036394;28;20048;-68
2022/09/11 12:48:45;;;;;;;7.65;6.80;;;21.80;95.80;;;;;;5047328;28;20355;-66
2022/09/11 12:51:24;;;;;;;7.78;6.97;;;21.80;95.90;;;;;;5042426;28;20078;-68
2022/09/11 12:53:54;;;;;;;7.18;6.47;;;21.90;95.40;;;;;;5044536;28;20025;-65
2022/09/11 12:56:23;;;;;;;7.35;6.60;;;21.90;95.40;;;;;;5033091;28;20021;-67
2022/09/11 12:58:59;;;;;;;9.63;7.40;;;21.90;95.40;;;;;;5038575;28;20025;-67
2022/09/11 13:01:44;;;;;;;8.70;7.68;;;21.90;95.20;;;;;;5040224;28;20029;-66